Time;durP1;ratioP1;P1;durP2;ratioP2;P2;SDS_P1;SDS_P2;PMS_P1;PMS_P2;Temp;Humidity;BMP_temperature;BMP_pressure;BME280_temperature;BME280_humidity;BME280_pressure;Samples;Min_cycle;Max_cycle;Signal;HPM_P1;HPM_P2
2024/03/10 00:00:39;;;;;;;17.83;13.10;;;9.10;99.90;;;;;;5016335;28;20391;-63
2024/03/10 00:03:06;;;;;;;16.92;12.68;;;9.00;99.90;;;;;;5015681;28;20513;-64
2024/03/10 00:05:33;;;;;;;16.92;13.07;;;9.10;99.90;;;;;;5015895;28;20372;-64
2024/03/10 00:08:00;;;;;;;23.13;12.57;;;9.10;99.90;;;;;;5016129;28;20049;-64
2024/03/10 00:10:27;;;;;;;16.63;12.35;;;9.00;99.90;;;;;;5015868;28;20042;-63
2024/03/10 00:12:54;;;;;;;19.60;12.70;;;9.00;99.90;;;;;;5015946;28;20096;-63
2024/03/10 00:15:21;;;;;;;18.63;12.65;;;9.00;99.90;;;;;;5015695;28;20050;-63
2024/03/10 00:17:48;;;;;;;20.92;13.23;;;9.00;99.90;;;;;;5016019;28;20124;-63
2024/03/10 00:20:15;;;;;;;18.42;13.00;;;9.00;99.90;;;;;;5015783;28;20467;-63
2024/03/10 00:22:42;;;;;;;19.52;13.35;;;9.00;99.90;;;;;;5015104;28;20395;-63
2024/03/10 00:25:13;;;;;;;16.95;11.90;;;9.00;99.90;;;;;;5015320;28;20038;-63
2024/03/10 00:27:41;;;;;;;17.17;11.70;;;9.00;99.90;;;;;;5015262;28;20491;-63
2024/03/10 00:30:09;;;;;;;11.73;8.60;;;9.10;99.90;;;;;;5015613;28;20108;-63
2024/03/10 00:32:36;;;;;;;12.75;8.38;;;9.10;99.90;;;;;;5015446;28;20104;-63
2024/03/10 00:35:05;;;;;;;10.55;8.00;;;9.10;99.90;;;;;;5015637;28;20124;-63
2024/03/10 00:37:32;;;;;;;10.23;7.18;;;9.10;99.90;;;;;;5014409;28;20048;-64
2024/03/10 00:39:59;;;;;;;9.77;6.85;;;9.20;99.90;;;;;;5015478;28;20042;-63
2024/03/10 00:42:26;;;;;;;8.02;5.90;;;9.20;99.90;;;;;;5014934;28;20034;-63
2024/03/10 00:44:53;;;;;;;7.72;4.68;;;9.20;99.90;;;;;;5015184;28;20096;-63
2024/03/10 00:47:20;;;;;;;5.25;4.35;;;9.20;99.90;;;;;;5014988;28;20048;-64
2024/03/10 00:49:47;;;;;;;5.72;4.13;;;9.20;99.90;;;;;;5015288;28;20426;-63
2024/03/10 00:52:14;;;;;;;7.28;3.90;;;9.30;99.90;;;;;;5015283;28;20057;-63
2024/03/10 00:54:41;;;;;;;5.60;3.70;;;9.30;99.90;;;;;;5015097;28;20077;-63
2024/03/10 00:57:08;;;;;;;5.93;3.22;;;9.30;99.90;;;;;;5015197;28;20045;-63
2024/03/10 00:59:35;;;;;;;5.22;3.78;;;9.30;99.90;;;;;;5014928;28;20096;-64
2024/03/10 01:02:03;;;;;;;5.47;3.80;;;9.30;99.90;;;;;;5013630;28;20038;-63
2024/03/10 01:04:30;;;;;;;4.25;3.13;;;9.30;99.90;;;;;;5014911;28;20128;-63
2024/03/10 01:06:57;;;;;;;7.15;3.28;;;9.30;99.90;;;;;;5014754;28;20038;-63
2024/03/10 01:09:24;;;;;;;6.53;3.58;;;9.30;99.90;;;;;;5013576;28;20136;-63
2024/03/10 01:11:51;;;;;;;5.03;3.45;;;9.30;99.90;;;;;;5014805;28;20042;-63
2024/03/10 01:14:19;;;;;;;5.88;3.65;;;9.30;99.90;;;;;;5014481;28;20053;-63
2024/03/10 01:16:46;;;;;;;7.07;3.25;;;9.30;99.90;;;;;;5013994;28;20356;-63
2024/03/10 01:19:13;;;;;;;5.10;3.33;;;9.30;99.90;;;;;;5014927;28;20046;-63
2024/03/10 01:21:40;;;;;;;3.85;3.35;;;9.30;99.90;;;;;;5014486;28;20121;-62
2024/03/10 01:24:07;;;;;;;5.13;3.65;;;9.30;99.90;;;;;;5014282;28;20042;-62
2024/03/10 01:26:34;;;;;;;5.43;3.40;;;9.30;99.90;;;;;;5014342;28;20108;-62
2024/03/10 01:29:01;;;;;;;6.40;3.40;;;9.20;99.90;;;;;;5012923;28;20487;-62
2024/03/10 01:31:28;;;;;;;7.82;3.72;;;9.20;99.90;;;;;;5014479;28;20064;-62
2024/03/10 01:33:55;;;;;;;6.93;3.40;;;9.20;99.90;;;;;;5014159;28;20073;-62
2024/03/10 01:36:22;;;;;;;5.05;3.28;;;9.20;99.90;;;;;;5014264;28;20372;-62
2024/03/10 01:38:49;;;;;;;5.45;3.10;;;9.20;99.90;;;;;;5014799;28;20084;-63
2024/03/10 01:41:15;;;;;;;8.75;3.53;;;9.20;99.90;;;;;;5014190;28;20034;-63
2024/03/10 01:43:47;;;;;;;8.18;3.25;;;9.20;99.90;;;;;;5014214;28;20419;-63
2024/03/10 01:46:15;;;;;;;8.43;3.75;;;9.20;99.90;;;;;;5012562;28;20533;-63
2024/03/10 01:48:43;;;;;;;7.35;3.85;;;9.30;99.90;;;;;;5014058;28;20034;-63
2024/03/10 01:51:13;;;;;;;6.25;3.45;;;9.30;99.90;;;;;;5012953;28;20472;-63
2024/03/10 01:53:39;;;;;;;4.80;2.55;;;9.20;99.90;;;;;;5013718;28;20064;-63
2024/03/10 01:56:07;;;;;;;3.08;1.67;;;9.20;99.90;;;;;;5013838;28;20048;-64
2024/03/10 01:58:34;;;;;;;2.97;1.60;;;9.10;99.90;;;;;;5013812;28;20468;-63
2024/03/10 02:01:04;;;;;;;3.60;1.67;;;8.90;99.90;;;;;;5014002;28;20116;-63
2024/03/10 02:03:34;;;;;;;3.13;1.83;;;8.90;99.90;;;;;;5013717;28;20042;-63
2024/03/10 02:06:01;;;;;;;3.03;1.80;;;8.80;99.90;;;;;;5014111;28;20486;-64
2024/03/10 02:08:28;;;;;;;3.00;1.75;;;8.80;99.90;;;;;;5012693;28;20100;-63
2024/03/10 02:10:55;;;;;;;3.38;1.90;;;8.80;99.90;;;;;;5013644;28;20034;-63
2024/03/10 02:13:22;;;;;;;4.65;2.15;;;8.80;99.90;;;;;;5013413;28;20053;-63
2024/03/10 02:15:49;;;;;;;4.45;1.75;;;8.80;99.90;;;;;;5013589;28;20058;-63
2024/03/10 02:18:17;;;;;;;5.80;2.00;;;8.80;99.90;;;;;;5013539;28;20443;-63
2024/03/10 02:20:44;;;;;;;5.30;1.95;;;8.80;99.90;;;;;;5013363;28;20048;-63
2024/03/10 02:23:10;;;;;;;4.10;2.10;;;8.80;99.90;;;;;;5013279;28;20033;-63
2024/03/10 02:25:38;;;;;;;4.05;2.00;;;8.80;99.90;;;;;;5013274;28;20044;-63
2024/03/10 02:28:20;;;;;;;3.63;2.08;;;8.70;99.90;;;;;;5013540;28;20069;-63
2024/03/10 02:30:55;;;;;;;3.88;2.30;;;8.80;99.90;;;;;;5013799;28;20045;-63
2024/03/10 02:47:13;;;;;;;3.90;2.60;;;8.90;99.90;;;;;;5013494;28;20128;-63
2024/03/10 02:49:40;;;;;;;3.13;2.50;;;8.80;99.90;;;;;;5013718;28;20147;-63
2024/03/10 02:52:08;;;;;;;4.00;2.92;;;8.90;99.90;;;;;;5013694;28;20042;-63
2024/03/10 02:54:35;;;;;;;3.40;2.75;;;8.80;99.90;;;;;;5013347;28;20493;-63
2024/03/10 02:57:02;;;;;;;4.75;2.70;;;8.80;99.90;;;;;;5013450;28;20038;-63
2024/03/10 02:59:29;;;;;;;3.92;2.72;;;8.80;99.90;;;;;;5013413;28;20049;-63
2024/03/10 03:01:56;;;;;;;4.20;2.67;;;8.80;99.90;;;;;;5013289;28;20096;-63
2024/03/10 03:04:28;;;;;;;3.17;2.28;;;8.80;99.90;;;;;;5013151;28;20479;-63
2024/03/10 03:06:55;;;;;;;3.28;2.20;;;8.80;99.90;;;;;;5012974;28;20034;-63
2024/03/10 03:09:21;;;;;;;3.30;2.15;;;8.80;99.90;;;;;;5013214;28;20034;-63
2024/03/10 03:11:48;;;;;;;2.50;1.98;;;8.80;99.90;;;;;;5012868;28;20117;-63
2024/03/10 03:14:15;;;;;;;2.58;1.92;;;8.80;99.90;;;;;;5013074;28;20038;-63
2024/03/10 03:16:42;;;;;;;2.42;2.03;;;8.80;99.90;;;;;;5013052;28;20054;-63
2024/03/10 03:19:12;;;;;;;2.90;2.00;;;8.80;99.90;;;;;;5011704;28;20046;-63
2024/03/10 03:21:39;;;;;;;3.60;2.03;;;8.80;99.90;;;;;;5013292;28;20089;-63
2024/03/10 03:24:08;;;;;;;3.22;2.00;;;8.90;99.90;;;;;;5014952;28;20034;-63
2024/03/10 03:26:36;;;;;;;2.70;1.90;;;8.80;99.90;;;;;;5016301;28;20058;-63
2024/03/10 03:29:06;;;;;;;2.53;1.83;;;8.80;99.90;;;;;;5016640;28;20458;-63
2024/03/10 03:31:33;;;;;;;2.40;1.80;;;8.80;99.90;;;;;;5016623;28;20073;-63
2024/03/10 03:34:00;;;;;;;3.55;1.90;;;8.80;99.90;;;;;;5016919;28;20054;-63
2024/03/10 03:36:27;;;;;;;3.13;1.92;;;8.80;99.90;;;;;;5016581;28;20128;-63
2024/03/10 03:38:55;;;;;;;4.32;1.77;;;8.80;99.90;;;;;;5015520;28;20050;-63
2024/03/10 03:41:22;;;;;;;2.92;1.60;;;8.80;99.90;;;;;;5016157;28;20041;-63
2024/03/10 03:43:49;;;;;;;3.05;1.60;;;8.80;99.90;;;;;;5016510;28;20034;-63
2024/03/10 03:46:17;;;;;;;3.00;1.73;;;8.80;99.90;;;;;;5016107;28;20380;-63
2024/03/10 03:48:44;;;;;;;2.28;1.70;;;8.80;99.90;;;;;;5016249;28;20042;-63
2024/03/10 03:51:11;;;;;;;2.70;1.65;;;8.80;99.90;;;;;;5016305;28;20388;-63
2024/03/10 03:53:38;;;;;;;4.97;1.90;;;8.80;99.90;;;;;;5014984;28;20103;-63
2024/03/10 03:56:08;;;;;;;2.58;1.65;;;8.80;99.90;;;;;;5014794;28;20064;-63
2024/03/10 03:58:35;;;;;;;2.40;1.50;;;8.80;99.90;;;;;;5015907;28;20124;-63
2024/03/10 04:01:04;;;;;;;2.58;1.60;;;8.80;99.90;;;;;;5016198;28;20386;-63
2024/03/10 04:03:31;;;;;;;4.40;1.80;;;8.80;99.90;;;;;;5015656;28;20038;-63
2024/03/10 04:05:57;;;;;;;2.13;1.60;;;8.80;99.90;;;;;;5016041;28;20080;-63
2024/03/10 04:08:24;;;;;;;2.40;1.77;;;8.80;99.90;;;;;;5016081;28;20431;-63
2024/03/10 04:10:51;;;;;;;3.15;1.90;;;8.80;99.90;;;;;;5015979;28;20045;-63
2024/03/10 04:13:19;;;;;;;2.60;1.48;;;8.80;99.90;;;;;;5016193;28;20046;-63
2024/03/10 04:15:46;;;;;;;2.45;1.60;;;8.80;99.90;;;;;;5015633;28;20058;-63
2024/03/10 04:18:13;;;;;;;3.33;1.83;;;8.80;99.90;;;;;;5015824;28;20052;-63
2024/03/10 04:20:41;;;;;;;3.53;1.90;;;8.80;99.90;;;;;;5015562;28;20664;-63
2024/03/10 04:23:08;;;;;;;3.95;2.22;;;8.80;99.90;;;;;;5015706;28;20048;-63
2024/03/10 04:25:35;;;;;;;2.53;2.00;;;8.80;99.90;;;;;;5015378;28;20053;-63
2024/03/10 04:28:02;;;;;;;3.65;2.35;;;8.80;99.90;;;;;;5015335;28;20038;-63
2024/03/10 04:30:29;;;;;;;3.13;2.28;;;8.70;99.90;;;;;;5015642;28;20065;-63
2024/03/10 04:32:56;;;;;;;4.05;2.50;;;8.80;99.90;;;;;;5015819;28;20045;-63
2024/03/10 04:35:24;;;;;;;3.63;2.45;;;8.70;99.90;;;;;;5014726;28;20048;-63
2024/03/10 04:37:53;;;;;;;4.05;2.40;;;8.70;99.90;;;;;;5015181;28;20418;-63
2024/03/10 04:40:20;;;;;;;4.05;2.40;;;8.70;99.90;;;;;;5015154;28;20117;-63
2024/03/10 04:42:47;;;;;;;5.55;2.63;;;8.70;99.90;;;;;;5015275;28;20034;-63
2024/03/10 04:45:14;;;;;;;3.58;2.45;;;8.70;99.90;;;;;;5015298;28;20034;-63
2024/03/10 04:47:41;;;;;;;3.60;2.50;;;8.70;99.90;;;;;;5014846;28;20045;-63
2024/03/10 04:50:08;;;;;;;3.00;2.40;;;8.60;99.90;;;;;;5014825;28;20050;-63
2024/03/10 04:52:36;;;;;;;3.03;2.30;;;8.60;99.90;;;;;;5014735;28;20475;-63
2024/03/10 04:55:04;;;;;;;5.03;2.55;;;8.50;99.90;;;;;;5014778;28;20518;-63
2024/03/10 04:57:32;;;;;;;3.38;2.45;;;8.50;99.90;;;;;;5014990;28;20068;-63
2024/03/10 04:59:59;;;;;;;4.35;2.80;;;8.50;99.90;;;;;;5014867;28;20120;-63
2024/03/10 05:02:26;;;;;;;5.18;2.78;;;8.40;99.90;;;;;;5015005;28;20064;-63
2024/03/10 05:04:54;;;;;;;4.03;2.50;;;8.40;99.90;;;;;;5014971;28;20064;-63
2024/03/10 05:07:22;;;;;;;3.72;2.60;;;8.30;99.90;;;;;;5014388;28;20030;-63
2024/03/10 05:09:49;;;;;;;3.28;2.40;;;8.40;99.90;;;;;;5014980;28;20121;-63
2024/03/10 05:12:15;;;;;;;4.10;2.45;;;8.40;99.90;;;;;;5014499;28;20133;-63
2024/03/10 05:14:43;;;;;;;4.28;2.30;;;8.30;99.90;;;;;;5014470;28;20452;-63
2024/03/10 05:17:11;;;;;;;3.15;1.83;;;8.30;99.90;;;;;;5014401;28;20387;-63
2024/03/10 05:19:38;;;;;;;3.30;2.22;;;8.30;99.90;;;;;;5014585;28;20069;-63
2024/03/10 05:22:05;;;;;;;4.38;1.98;;;8.30;99.90;;;;;;5014723;28;20075;-63
2024/03/10 05:24:32;;;;;;;3.70;2.05;;;8.30;99.90;;;;;;5014256;28;20046;-63
2024/03/10 05:27:00;;;;;;;3.13;1.73;;;8.30;99.90;;;;;;5014520;28;20490;-63
2024/03/10 05:29:26;;;;;;;3.45;1.90;;;8.30;99.90;;;;;;5014477;28;20367;-63
2024/03/10 05:31:53;;;;;;;3.38;2.20;;;8.30;99.90;;;;;;5014091;28;20391;-63
2024/03/10 05:34:20;;;;;;;3.53;1.90;;;8.30;99.90;;;;;;5014502;28;20045;-63
2024/03/10 05:36:47;;;;;;;3.97;1.77;;;8.30;99.90;;;;;;5012769;28;20038;-63
2024/03/10 05:39:14;;;;;;;2.75;2.10;;;8.30;99.90;;;;;;5012684;28;20042;-63
2024/03/10 05:41:41;;;;;;;3.80;1.98;;;8.30;99.90;;;;;;5014368;28;20120;-63
2024/03/10 05:44:09;;;;;;;2.75;1.98;;;8.30;99.90;;;;;;5014133;28;20100;-63
2024/03/10 05:46:36;;;;;;;3.03;1.90;;;8.30;99.90;;;;;;5013224;28;20156;-64
2024/03/10 05:49:03;;;;;;;3.50;2.00;;;8.30;99.90;;;;;;5014277;28;20479;-64
2024/03/10 05:51:29;;;;;;;4.05;2.05;;;8.30;99.90;;;;;;5013012;28;20038;-64
2024/03/10 05:53:56;;;;;;;3.83;2.33;;;8.30;99.90;;;;;;5014065;28;20042;-64
2024/03/10 05:56:23;;;;;;;5.05;1.95;;;8.30;99.90;;;;;;5013670;28;20045;-64
2024/03/10 05:58:50;;;;;;;4.13;1.80;;;8.30;99.90;;;;;;5013794;28;20083;-64
2024/03/10 06:01:23;;;;;;;4.07;1.95;;;8.30;99.90;;;;;;5013667;28;20487;-64
2024/03/10 06:03:54;;;;;;;3.58;1.90;;;8.30;99.90;;;;;;5012577;28;20061;-64
2024/03/10 06:06:23;;;;;;;6.40;2.40;;;8.30;99.90;;;;;;5013437;28;20407;-64
2024/03/10 06:08:50;;;;;;;2.58;1.90;;;8.30;99.90;;;;;;5013605;28;20096;-64
2024/03/10 06:11:18;;;;;;;3.65;2.05;;;8.30;99.90;;;;;;5013890;28;20041;-64
2024/03/10 06:13:46;;;;;;;3.83;2.30;;;8.30;99.90;;;;;;5013553;28;20439;-64
2024/03/10 06:16:12;;;;;;;3.05;2.00;;;8.30;99.90;;;;;;5013322;28;20180;-64
2024/03/10 06:26:55;;;;;;;5.38;2.38;;;8.40;99.90;;;;;;5013551;28;20545;-64
2024/03/10 06:29:23;;;;;;;7.13;2.80;;;8.40;99.90;;;;;;5013458;28;20049;-64
2024/03/10 06:31:50;;;;;;;5.15;2.65;;;8.40;99.90;;;;;;5013542;28;20434;-64
2024/03/10 06:34:20;;;;;;;5.32;3.38;;;8.50;99.90;;;;;;5013619;28;20042;-64
2024/03/10 06:36:49;;;;;;;3.10;2.72;;;8.40;99.90;;;;;;5013285;28;20038;-64
2024/03/10 06:39:19;;;;;;;3.88;3.05;;;8.40;99.90;;;;;;5013605;28;20467;-64
2024/03/10 06:41:46;;;;;;;3.75;2.92;;;8.50;99.90;;;;;;5012303;28;20497;-64
2024/03/10 06:44:19;;;;;;;4.85;3.30;;;8.50;99.90;;;;;;5013396;28;20455;-64
2024/03/10 06:46:46;;;;;;;4.78;3.65;;;8.40;99.90;;;;;;5013418;28;20116;-66
2024/03/10 06:49:14;;;;;;;5.95;3.40;;;8.50;99.90;;;;;;5013573;28;20030;-64
2024/03/10 06:51:41;;;;;;;4.70;3.40;;;8.50;99.90;;;;;;5013436;28;20096;-64
2024/03/10 06:54:08;;;;;;;4.95;3.97;;;8.50;99.90;;;;;;5011903;28;20128;-64
2024/03/10 06:56:36;;;;;;;6.32;4.15;;;8.50;99.90;;;;;;5020283;28;20116;-64
2024/03/10 06:59:03;;;;;;;4.63;3.67;;;8.50;99.90;;;;;;5036354;28;20092;-64
2024/03/10 07:01:31;;;;;;;5.28;3.72;;;8.50;99.90;;;;;;5036562;28;20050;-63
2024/03/10 07:03:58;;;;;;;5.25;4.05;;;8.50;99.90;;;;;;5036634;28;20041;-63
2024/03/10 07:06:26;;;;;;;5.45;4.30;;;8.50;99.90;;;;;;5036933;28;20054;-63
2024/03/10 07:08:54;;;;;;;7.85;4.32;;;8.50;99.90;;;;;;5036910;28;20042;-63
2024/03/10 07:11:21;;;;;;;4.45;4.03;;;8.50;99.90;;;;;;5037062;28;20113;-63
2024/03/10 07:13:49;;;;;;;6.97;4.63;;;8.50;99.90;;;;;;5036947;28;20121;-63
2024/03/10 07:16:16;;;;;;;6.88;4.40;;;8.50;99.90;;;;;;5036207;28;20066;-63
2024/03/10 07:18:43;;;;;;;6.65;4.78;;;8.60;99.90;;;;;;5036458;28;20120;-63
2024/03/10 07:21:10;;;;;;;7.80;4.78;;;8.60;99.90;;;;;;5036461;28;20076;-63
2024/03/10 07:23:37;;;;;;;5.25;4.28;;;8.60;99.90;;;;;;5036228;28;20042;-63
2024/03/10 07:26:03;;;;;;;6.50;4.75;;;8.60;99.90;;;;;;5019015;28;20474;-63
2024/03/10 07:28:31;;;;;;;6.22;4.60;;;8.60;99.90;;;;;;5036785;28;20042;-63
2024/03/10 07:30:59;;;;;;;8.57;4.97;;;8.70;99.90;;;;;;5036262;28;20072;-63
2024/03/10 07:33:26;;;;;;;9.35;5.53;;;8.60;99.90;;;;;;5036159;28;20048;-63
2024/03/10 07:35:53;;;;;;;6.40;5.13;;;8.70;99.90;;;;;;5034727;28;20045;-63
2024/03/10 07:38:20;;;;;;;8.23;5.63;;;8.70;99.90;;;;;;5036464;28;20464;-63
2024/03/10 07:40:47;;;;;;;6.55;5.07;;;8.60;99.90;;;;;;5036675;28;20498;-63
2024/03/10 07:43:20;;;;;;;6.85;5.70;;;8.60;99.90;;;;;;5036100;28;20050;-63
2024/03/10 07:45:47;;;;;;;7.18;5.75;;;8.70;99.90;;;;;;5035712;28;20045;-63
2024/03/10 07:48:16;;;;;;;8.77;5.90;;;8.70;99.90;;;;;;5035932;28;20045;-63
2024/03/10 07:50:42;;;;;;;7.20;5.50;;;8.70;99.90;;;;;;5036522;28;20061;-63
2024/03/10 07:53:09;;;;;;;7.40;5.45;;;8.70;99.90;;;;;;5035738;28;20096;-63
2024/03/10 07:55:36;;;;;;;6.82;5.75;;;8.80;99.90;;;;;;5035753;28;20041;-64
2024/03/10 07:58:06;;;;;;;7.85;5.72;;;8.90;99.90;;;;;;5035885;28;20042;-64
2024/03/10 08:00:33;;;;;;;8.80;6.03;;;8.90;99.90;;;;;;5035934;28;20042;-65
2024/03/10 08:03:00;;;;;;;6.35;5.75;;;9.00;99.90;;;;;;5034896;28;20034;-64
2024/03/10 08:05:29;;;;;;;8.48;6.43;;;9.00;99.90;;;;;;5035818;28;20108;-64
2024/03/10 08:07:57;;;;;;;6.00;5.43;;;9.00;99.90;;;;;;5035901;28;20052;-64
2024/03/10 08:10:24;;;;;;;5.80;5.30;;;9.00;99.90;;;;;;5034707;28;20037;-64
2024/03/10 08:12:52;;;;;;;5.88;5.13;;;9.10;99.90;;;;;;5035621;28;20414;-63
2024/03/10 08:15:19;;;;;;;5.85;5.30;;;9.00;99.90;;;;;;5035443;28;20529;-63
2024/03/10 08:17:46;;;;;;;7.57;5.28;;;9.00;99.90;;;;;;5034250;28;20132;-63
2024/03/10 08:20:13;;;;;;;6.25;5.30;;;9.10;99.90;;;;;;5035479;28;20080;-64
2024/03/10 08:22:42;;;;;;;6.05;5.00;;;9.10;99.90;;;;;;5035385;28;20107;-64
2024/03/10 08:25:09;;;;;;;6.53;5.10;;;9.10;99.90;;;;;;5035523;28;20077;-64
2024/03/10 08:27:36;;;;;;;5.65;4.82;;;9.10;99.90;;;;;;5034365;28;20413;-64
2024/03/10 08:30:03;;;;;;;4.93;4.43;;;9.10;99.90;;;;;;5034432;28;20386;-64
2024/03/10 08:32:33;;;;;;;5.40;4.40;;;9.10;99.90;;;;;;5035585;28;20140;-64
2024/03/10 08:35:00;;;;;;;6.50;5.00;;;9.10;99.90;;;;;;5035426;28;20123;-65
2024/03/10 08:37:28;;;;;;;5.60;4.63;;;9.10;99.90;;;;;;5034291;28;20449;-64
2024/03/10 08:39:55;;;;;;;5.35;4.45;;;9.20;99.90;;;;;;5035005;28;20045;-64
2024/03/10 08:42:24;;;;;;;5.07;4.00;;;9.20;99.90;;;;;;5035250;28;20041;-65
2024/03/10 08:44:51;;;;;;;6.45;4.35;;;9.20;99.90;;;;;;5034757;28;20056;-64
2024/03/10 08:47:18;;;;;;;5.22;4.70;;;9.20;99.90;;;;;;5034623;28;20112;-64
2024/03/10 08:49:45;;;;;;;6.70;5.10;;;9.20;99.90;;;;;;5033619;28;20038;-64
2024/03/10 08:52:12;;;;;;;5.78;5.00;;;9.20;99.90;;;;;;5034846;28;20037;-65
2024/03/10 08:54:39;;;;;;;7.57;4.47;;;9.20;99.90;;;;;;5033522;28;20126;-65
2024/03/10 08:57:06;;;;;;;6.95;5.07;;;9.20;99.90;;;;;;5034803;28;20044;-64
2024/03/10 08:59:33;;;;;;;5.45;4.65;;;9.30;99.90;;;;;;5034667;28;20071;-65
2024/03/10 09:02:02;;;;;;;8.20;4.90;;;9.40;99.90;;;;;;5034765;28;20041;-64
2024/03/10 09:04:29;;;;;;;5.18;4.68;;;9.50;99.90;;;;;;5030662;28;20129;-62
2024/03/10 09:06:56;;;;;;;8.65;5.10;;;9.50;99.90;;;;;;5033960;28;20076;-63
2024/03/10 09:09:22;;;;;;;6.82;5.18;;;9.60;99.90;;;;;;5033870;28;20100;-63
2024/03/10 09:11:49;;;;;;;6.25;5.50;;;9.60;99.90;;;;;;5033549;28;20388;-63
2024/03/10 09:14:18;;;;;;;6.40;5.30;;;9.50;99.90;;;;;;5033644;28;20057;-63
2024/03/10 09:16:45;;;;;;;6.03;5.43;;;9.50;99.90;;;;;;5026755;28;20053;-63
2024/03/10 09:19:14;;;;;;;7.78;5.70;;;9.50;99.90;;;;;;5033717;28;20485;-63
2024/03/10 09:21:43;;;;;;;7.05;5.88;;;9.50;99.90;;;;;;5026095;28;20049;-63
2024/03/10 09:24:14;;;;;;;6.75;5.57;;;9.50;99.90;;;;;;5033563;28;20037;-63
2024/03/10 09:26:41;;;;;;;6.82;6.13;;;9.50;99.90;;;;;;5033645;28;20483;-63
2024/03/10 09:29:09;;;;;;;7.93;6.40;;;9.50;99.90;;;;;;5033622;28;20033;-63
2024/03/10 09:31:39;;;;;;;7.00;6.18;;;9.60;99.90;;;;;;5033140;28;20041;-63
2024/03/10 09:34:07;;;;;;;6.93;6.03;;;9.70;99.90;;;;;;5029454;28;20053;-64
2024/03/10 09:36:33;;;;;;;6.93;5.78;;;9.70;99.90;;;;;;5033902;28;20563;-64
2024/03/10 09:39:00;;;;;;;6.80;5.38;;;9.70;99.90;;;;;;5033348;28;20509;-64
2024/03/10 09:41:27;;;;;;;6.22;5.15;;;9.70;99.90;;;;;;5033286;28;20037;-65
2024/03/10 09:43:55;;;;;;;7.00;5.88;;;9.70;99.90;;;;;;5033243;28;20044;-65
2024/03/10 09:46:22;;;;;;;7.05;6.10;;;9.70;99.90;;;;;;5033551;28;20446;-65
2024/03/10 09:48:49;;;;;;;6.68;5.43;;;9.70;99.90;;;;;;5033431;28;20045;-64
2024/03/10 09:51:17;;;;;;;6.55;5.30;;;9.70;99.90;;;;;;5033444;28;20065;-64
2024/03/10 09:53:43;;;;;;;6.55;5.65;;;9.70;99.90;;;;;;5028924;28;20041;-65
2024/03/10 09:56:11;;;;;;;6.95;5.18;;;9.60;99.90;;;;;;5033069;28;20053;-65
2024/03/10 09:58:38;;;;;;;7.45;5.35;;;9.60;99.90;;;;;;5033427;28;20037;-65
2024/03/10 10:01:11;;;;;;;6.05;5.07;;;9.60;99.90;;;;;;5033674;28;20037;-65
2024/03/10 10:03:39;;;;;;;6.80;5.32;;;9.70;99.90;;;;;;5034080;28;20033;-65
2024/03/10 10:06:08;;;;;;;6.13;5.15;;;9.80;99.90;;;;;;5033420;28;20453;-66
2024/03/10 10:08:35;;;;;;;6.38;4.78;;;9.80;99.90;;;;;;5034214;28;20041;-63
2024/03/10 10:11:02;;;;;;;5.18;4.15;;;9.90;99.90;;;;;;5033935;28;20112;-63
2024/03/10 10:13:29;;;;;;;5.28;4.30;;;9.90;99.90;;;;;;5033821;28;20550;-63
2024/03/10 10:15:59;;;;;;;5.30;4.00;;;9.90;99.90;;;;;;5032632;28;20049;-63
2024/03/10 10:18:27;;;;;;;7.30;5.78;;;10.00;99.90;;;;;;5032605;28;20042;-63
2024/03/10 10:20:58;;;;;;;4.20;3.78;;;10.00;99.90;;;;;;5033246;28;20037;-63
2024/03/10 10:23:26;;;;;;;5.32;3.40;;;10.10;99.90;;;;;;5033588;28;20041;-63
2024/03/10 10:25:53;;;;;;;4.10;3.20;;;10.10;99.90;;;;;;5033015;28;20120;-63
2024/03/10 10:28:20;;;;;;;4.18;2.83;;;10.10;99.90;;;;;;5033433;28;20034;-62
2024/03/10 10:30:48;;;;;;;3.10;2.50;;;10.10;99.90;;;;;;5033319;28;20095;-63
2024/03/10 10:33:15;;;;;;;3.20;2.58;;;10.10;99.90;;;;;;5033581;28;20045;-64
2024/03/10 10:35:42;;;;;;;3.85;2.45;;;10.10;99.90;;;;;;5037053;28;20049;-65
2024/03/10 10:38:12;;;;;;;3.65;2.60;;;10.10;99.90;;;;;;5037237;28;20048;-64
2024/03/10 10:40:40;;;;;;;3.20;2.30;;;10.20;99.90;;;;;;5035767;28;20148;-64
2024/03/10 10:43:07;;;;;;;2.40;2.03;;;10.20;99.90;;;;;;5036374;28;20116;-64
2024/03/10 10:45:34;;;;;;;4.20;2.35;;;10.30;99.90;;;;;;5028583;28;20056;-65
2024/03/10 10:48:03;;;;;;;3.42;2.42;;;10.30;99.90;;;;;;5036474;28;20057;-65
2024/03/10 10:50:34;;;;;;;5.30;2.08;;;10.20;99.90;;;;;;5036190;28;20505;-65
2024/03/10 10:53:01;;;;;;;2.67;2.33;;;10.20;99.90;;;;;;5036565;28;20033;-65
2024/03/10 10:55:28;;;;;;;4.85;2.20;;;10.20;99.90;;;;;;5035208;28;20045;-65
2024/03/10 10:57:56;;;;;;;3.20;2.40;;;10.10;99.90;;;;;;5033514;28;20417;-65
2024/03/10 11:00:23;;;;;;;6.75;2.50;;;10.10;99.90;;;;;;5036266;28;20045;-65
2024/03/10 11:02:51;;;;;;;3.85;2.15;;;10.10;99.90;;;;;;5034595;28;20544;-65
2024/03/10 11:05:18;;;;;;;4.63;2.30;;;10.10;99.90;;;;;;5034627;28;20048;-65
2024/03/10 11:07:45;;;;;;;3.28;2.10;;;10.10;99.90;;;;;;5036266;28;20049;-65
2024/03/10 11:10:12;;;;;;;3.40;2.05;;;10.10;99.90;;;;;;5036168;28;20099;-66
2024/03/10 11:12:39;;;;;;;3.38;2.38;;;10.10;99.90;;;;;;5036470;28;20069;-66
2024/03/10 11:15:08;;;;;;;2.90;1.98;;;10.10;99.90;;;;;;5036039;28;20054;-65
2024/03/10 11:17:35;;;;;;;3.80;2.10;;;10.10;99.90;;;;;;5036271;28;20038;-66
2024/03/10 11:20:02;;;;;;;2.38;1.80;;;10.10;99.90;;;;;;5036196;28;20459;-66
2024/03/10 11:22:31;;;;;;;2.58;1.73;;;10.10;99.90;;;;;;5036415;28;20152;-65
2024/03/10 11:24:58;;;;;;;2.83;1.80;;;10.00;99.90;;;;;;5036147;28;20445;-65
2024/03/10 11:27:26;;;;;;;3.30;1.70;;;9.90;99.90;;;;;;5036361;28;20487;-66
2024/03/10 11:29:52;;;;;;;2.63;1.60;;;9.70;99.90;;;;;;5035636;28;20064;-65
2024/03/10 11:32:19;;;;;;;2.55;1.60;;;9.60;99.90;;;;;;5033380;28;20046;-65
2024/03/10 11:34:47;;;;;;;3.33;2.10;;;9.60;99.90;;;;;;5035562;28;20049;-65
2024/03/10 11:37:14;;;;;;;2.88;2.20;;;9.50;99.90;;;;;;5035708;28;20044;-63
2024/03/10 11:39:41;;;;;;;4.25;2.70;;;9.50;99.90;;;;;;5034110;28;20115;-63
2024/03/10 11:42:09;;;;;;;5.25;3.70;;;9.50;99.90;;;;;;5036166;28;20128;-66
2024/03/10 11:44:36;;;;;;;5.57;4.60;;;9.50;99.90;;;;;;5034762;28;20136;-63
2024/03/10 11:47:05;;;;;;;6.32;5.13;;;9.50;99.90;;;;;;5034561;28;20037;-63
2024/03/10 11:49:32;;;;;;;6.10;5.47;;;9.50;99.90;;;;;;5036130;28;20076;-63
2024/03/10 11:51:58;;;;;;;6.93;5.75;;;9.50;99.90;;;;;;5027124;28;20064;-62
2024/03/10 11:54:27;;;;;;;6.70;5.85;;;9.60;99.90;;;;;;5036037;28;20041;-63
2024/03/10 11:56:55;;;;;;;8.35;6.57;;;9.60;99.90;;;;;;5034904;28;20033;-63
2024/03/10 11:59:22;;;;;;;9.60;7.78;;;9.60;99.90;;;;;;5034895;28;20041;-63
2024/03/10 12:01:49;;;;;;;9.90;8.82;;;9.60;99.90;;;;;;5035640;28;20591;-63
2024/03/10 12:04:16;;;;;;;9.90;8.90;;;9.60;99.90;;;;;;5035328;28;20045;-63
2024/03/10 12:06:43;;;;;;;9.95;8.95;;;9.60;99.90;;;;;;5035348;28;20061;-63
2024/03/10 12:09:13;;;;;;;12.35;8.50;;;9.50;99.90;;;;;;5035307;28;20052;-65
2024/03/10 12:11:40;;;;;;;10.15;8.82;;;9.50;99.90;;;;;;5035426;28;20052;-65
2024/03/10 12:14:08;;;;;;;10.00;9.10;;;9.40;99.90;;;;;;5035511;28;20041;-66
2024/03/10 12:16:47;;;;;;;12.40;8.90;;;9.30;99.90;;;;;;5035187;28;20107;-65
2024/03/10 12:19:15;;;;;;;11.50;10.38;;;9.30;99.90;;;;;;5035271;28;20463;-65
2024/03/10 12:21:42;;;;;;;13.75;11.75;;;9.20;99.90;;;;;;5035464;28;20045;-65
2024/03/10 12:24:09;;;;;;;15.32;12.13;;;9.20;99.90;;;;;;5035632;28;20103;-65
2024/03/10 12:26:37;;;;;;;15.40;13.82;;;9.10;99.90;;;;;;5035244;28;20051;-65
2024/03/10 12:29:04;;;;;;;19.13;15.88;;;9.10;99.90;;;;;;5035319;28;20069;-65
2024/03/10 12:31:31;;;;;;;24.48;19.55;;;9.10;99.90;;;;;;5035390;28;20421;-63
2024/03/10 12:33:58;;;;;;;24.42;21.23;;;9.10;99.90;;;;;;5035375;28;20361;-63
2024/03/10 12:36:25;;;;;;;27.13;22.67;;;9.00;99.90;;;;;;5034943;28;20041;-62
2024/03/10 12:38:52;;;;;;;26.50;22.92;;;9.00;99.90;;;;;;5036193;28;20116;-63
2024/03/10 12:41:23;;;;;;;29.70;24.35;;;9.00;99.90;;;;;;5034022;28;20152;-62
2024/03/10 12:43:55;;;;;;;30.50;23.95;;;9.00;99.90;;;;;;5035346;28;20045;-62
2024/03/10 12:46:23;;;;;;;34.25;25.88;;;9.00;99.90;;;;;;5035068;28;20422;-63
2024/03/10 12:48:52;;;;;;;34.08;26.33;;;8.90;99.90;;;;;;5033793;28;20144;-63
2024/03/10 12:51:20;;;;;;;31.95;26.33;;;8.90;99.90;;;;;;5034425;28;20458;-65
2024/03/10 12:53:46;;;;;;;31.60;27.35;;;8.90;99.90;;;;;;5034432;28;20048;-63
2024/03/10 12:56:13;;;;;;;34.58;27.73;;;8.90;99.90;;;;;;5034372;28;20064;-63
2024/03/10 12:58:41;;;;;;;33.22;26.67;;;9.00;99.90;;;;;;5034803;28;20042;-63
2024/03/10 13:01:07;;;;;;;35.50;28.20;;;9.00;99.90;;;;;;5034693;28;20045;-64
2024/03/10 13:03:35;;;;;;;36.50;29.67;;;9.00;99.90;;;;;;5034996;28;20042;-64
2024/03/10 13:06:02;;;;;;;35.05;28.00;;;9.00;99.90;;;;;;5035037;28;20037;-64
2024/03/10 13:08:29;;;;;;;35.88;28.30;;;9.10;99.90;;;;;;5034376;28;20037;-64
2024/03/10 13:10:55;;;;;;;36.35;28.17;;;9.10;99.90;;;;;;5034836;28;20111;-63
2024/03/10 13:13:23;;;;;;;38.80;28.27;;;9.10;99.90;;;;;;5034800;28;20048;-63
2024/03/10 13:15:50;;;;;;;39.92;29.17;;;9.10;99.90;;;;;;5034160;28;20465;-63